Fly Pergamon Sport Airfield

TR-0041 · İzmir, 土耳其

使用的METAR站距离机场48 km。
罗盘
风向 的 风向 的 风向 到 风向 180° Fly Pergamon Sport Airfield 6/24
风: 11 kt, 4 beaufort

5 kt

10 kt
改变
0 ft 1.000 2.000 3.000 4.000 5.000
Cloud Cloud
FEW 1.800
Cloud Cloud Cloud Cloud
SCT 2.500
METAR LGMT 231550Z 18011KT 150V220 9999 FEW018 SCT025 15/13 Q1019

METAR Fly Pergamon Sport Airfield - TR-0041

Fly Pergamon Sport Airfield是,土耳其中的小机场。 该机场位于纬度39,09284和经度27,14865。 该机场有一条跑道: 6/24. 这个机场没有ICAO代码,我们使用TR-0041作为参考。 机场在Athinai FIR中。

该航空气象观测是针对Mytilene International Airport在2024年2月23日 17:50, 当地时间进行的。

机场观察

风向为180°,速度为11 kt。 风向在150°和220°之间变化。

可见度为10 km 或者更多。

有几云在1.800 ft的高度 和 疏云,零星散落的云朵在2.500 ft的高度。 没有观察到天花板。

温度和风寒是15 °C。 露点为13 °C,相对湿度为88%。 海平面上的气压为1019 hPa (QNH)。

白天

今天,太阳从07:53升起,在18:56降落。 这适用于Fly Pergamon Sport Airfield,世界夏令时可能有所不同。 当地时间与世界标准时间之间的时差为+3 小时。 当前,没有夏令时有效。

公司介绍

我们没有关于这个机场的公司信息。

体会

到Vliegles.nl去找飞行课程,跳伞和其他飞行体验。 浏览页面,了解Fly Pergamon Sport Airfield附近所有可用的活动。 你也可以使用搜索功能来寻找你所在地附近的特定飞行课程、跳伞或其他飞行体验。

跑道

Id 标题 侧风 逆风 侧风 %
6/24 064°-244° 10 kt 5 kt 90 %

逆风成分最大的方向会被突出显示,并用于横风计算。 这并不一定意味着这个方向在使用。

乌云

1.800 ft FEW 几云
2.500 ft SCT 疏云,零星散落的云朵

温度 & 天气

温度 15 °C
露点 13 °C
相对湿度 88%
Kp-index 0 (0-9)

白天

日出
07:55 (12:36)
中午
13:27
日落
18:58

小工具

你想在你的网站上有一个关于Fly Pergamon Sport Airfield的当前航空天气(METAR)的小部件吗?

显示HTML代码
?>